Wetterdaten: Woche 19.04.04 - 25.04.04 (KW17)
Datum Zeit Temperatur Luftfeuchte Luftdruck Regenmenge Wind Richtung Taupunkt Windchill
19.04.2004 00:00 7.5 C 92 % 998.2 hPa 0.0 l/m 7.1 km/h (2 Bft) NW 6.3 C 6.4 C
19.04.2004 01:00 7.3 C 92 % 999.1 hPa 0.3 l/m 3.4 km/h (1 Bft) NW 6.2 C 6.8 C
19.04.2004 02:00 6.5 C 96 % 999.4 hPa 0.3 l/m 2.3 km/h (1 Bft) SO 5.9 C 6.2 C
19.04.2004 03:00 5.8 C 97 % 999.5 hPa 0.3 l/m 2.6 km/h (1 Bft) SO 5.3 C 5.4 C
19.04.2004 04:00 5.8 C 92 % 999.8 hPa 0.0 l/m 9.6 km/h (2 Bft) NW 4.5 C 4.0 C
19.04.2004 05:00 4.9 C 92 % 999.9 hPa 0.0 l/m 2.5 km/h (1 Bft) SO 3.7 C 4.4 C
19.04.2004 06:00 4.7 C 96 % 1000.3 hPa 0.0 l/m 0.2 km/h (0 Bft) S-SO 4.1 C 4.7 C
19.04.2004 07:00 5.1 C 96 % 1000.7 hPa 0.3 l/m 1.3 km/h (1 Bft) SO 4.5 C 4.9 C
19.04.2004 08:00 5.0 C 96 % 1000.7 hPa 0.0 l/m 3.7 km/h (1 Bft) SO 4.5 C 4.4 C
19.04.2004 09:00 5.0 C 92 % 1001.0 hPa 0.0 l/m 5.2 km/h (1 Bft) SO 3.9 C 4.0 C
19.04.2004 10:00 5.6 C 87 % 1001.6 hPa 0.0 l/m 4.5 km/h (1 Bft) S 3.5 C 4.8 C
19.04.2004 11:00 6.5 C 79 % 1002.1 hPa 0.0 l/m 3.7 km/h (1 Bft) W 3.2 C 5.9 C
19.04.2004 12:00 7.6 C 75 % 1001.7 hPa 0.0 l/m 4.6 km/h (1 Bft) SO 3.4 C 7.0 C
19.04.2004 13:00 7.9 C 70 % 1002.4 hPa 0.0 l/m 6.2 km/h (2 Bft) W 2.7 C 7.0 C
19.04.2004 14:00 8.7 C 64 % 1002.2 hPa 0.0 l/m 6.5 km/h (2 Bft) SO 2.3 C 7.8 C
19.04.2004 15:00 9.7 C 60 % 1002.1 hPa 0.0 l/m 12.7 km/h (3 Bft) SO 2.4 C 8.8 C
19.04.2004 16:00 11.0 C 54 % 1001.9 hPa 0.0 l/m 12.2 km/h (2 Bft) SO 1.9 C 10.9 C
19.04.2004 17:00 10.6 C 54 % 1002.0 hPa 0.0 l/m 18.8 km/h (3 Bft) SO 1.8 C 10.6 C
19.04.2004 18:00 10.2 C 55 % 1002.0 hPa 0.0 l/m 11.0 km/h (2 Bft) SO 1.5 C 9.5 C
19.04.2004 19:00 9.4 C 58 % 1002.3 hPa 0.0 l/m 3.7 km/h (1 Bft) SO 1.5 C 9.1 C
19.04.2004 20:00 6.9 C 69 % 1003.6 hPa 0.0 l/m 8.4 km/h (2 Bft) O-SO 1.6 C 5.3 C
19.04.2004 21:00 4.6 C 77 % 1004.9 hPa 0.0 l/m 1.1 km/h (0 Bft) SO 0.8 C 4.5 C
19.04.2004 22:00 3.7 C 82 % 1005.0 hPa 0.0 l/m 0.7 km/h (0 Bft) SO 1.0 C 3.6 C
19.04.2004 23:00 2.7 C 91 % 1005.2 hPa 0.0 l/m 2.1 km/h (1 Bft) O-SO 1.3 C 2.3 C
20.04.2004 00:00 2.0 C 96 % 1005.5 hPa 0.0 l/m 3.3 km/h (1 Bft) O-SO 1.3 C 1.2 C
20.04.2004 01:00 0.9 C 98 % 1006.4 hPa 0.0 l/m 1.2 km/h (1 Bft) O-SO 0.6 C 0.7 C
20.04.2004 02:00 0.9 C 100 % 1006.5 hPa 0.0 l/m 0.0 km/h (0 Bft) N 0.9 C 0.9 C
20.04.2004 03:00 0.8 C 100 % 1006.5 hPa 0.0 l/m 0.0 km/h (0 Bft) N 0.8 C 0.8 C
20.04.2004 04:00 0.4 C 100 % 1006.8 hPa 0.0 l/m 0.0 km/h (0 Bft) N 0.4 C 0.4 C
20.04.2004 05:00 0.1 C 100 % 1007.6 hPa 0.0 l/m 0.0 km/h (0 Bft) N 0.1 C 0.1 C
20.04.2004 06:00 -0.4 C 100 % 1007.7 hPa 0.0 l/m 2.9 km/h (1 Bft) O-SO -0.3 C -0.9 C
20.04.2004 07:00 0.5 C 100 % 1008.3 hPa 0.0 l/m 0.6 km/h (0 Bft) O-NO 0.4 C 0.3 C
20.04.2004 08:00 2.6 C 99 % 1009.1 hPa 0.0 l/m 0.1 km/h (0 Bft) W-NW 2.4 C 2.6 C
20.04.2004 09:00 5.2 C 80 % 1009.0 hPa 0.0 l/m 0.1 km/h (0 Bft) N 2.0 C 5.2 C
20.04.2004 10:00 8.0 C 62 % 1008.6 hPa 0.0 l/m 1.0 km/h (0 Bft) W-NW 1.0 C 7.9 C
20.04.2004 11:00 10.6 C 53 % 1008.6 hPa 0.0 l/m 2.2 km/h (1 Bft) W-NW 1.5 C 10.5 C
20.04.2004 12:00 13.6 C 43 % 1008.5 hPa 0.0 l/m 4.7 km/h (1 Bft) SO 1.2 C 13.6 C
20.04.2004 13:00 14.9 C 35 % 1008.7 hPa 0.0 l/m 6.7 km/h (2 Bft) NW -0.3 C 14.9 C
20.04.2004 14:00 14.8 C 37 % 1008.7 hPa 0.0 l/m 6.0 km/h (2 Bft) W-NW 0.0 C 14.8 C
20.04.2004 15:00 15.5 C 33 % 1009.0 hPa 0.0 l/m 10.2 km/h (2 Bft) W-NW -0.6 C 15.5 C
20.04.2004 16:00 15.4 C 39 % 1009.6 hPa 0.0 l/m 5.2 km/h (1 Bft) S 1.4 C 15.4 C
20.04.2004 17:00 14.6 C 42 % 1009.8 hPa 0.0 l/m 8.1 km/h (2 Bft) W-NW 2.0 C 14.6 C
20.04.2004 18:00 14.2 C 46 % 1010.8 hPa 0.0 l/m 10.8 km/h (2 Bft) NW 2.7 C 14.2 C
20.04.2004 19:00 13.1 C 55 % 1011.8 hPa 0.0 l/m 8.9 km/h (2 Bft) NW 4.2 C 13.1 C
20.04.2004 20:00 12.0 C 66 % 1012.9 hPa 0.0 l/m 0.0 km/h (0 Bft) N 5.7 C 12.0 C
20.04.2004 21:00 11.1 C 77 % 1014.0 hPa 0.0 l/m 1.0 km/h (0 Bft) N-NW 7.3 C 11.1 C
20.04.2004 22:00 10.5 C 83 % 1014.5 hPa 0.0 l/m 1.5 km/h (1 Bft) O-SO 7.8 C 10.5 C
20.04.2004 23:00 10.1 C 87 % 1015.4 hPa 0.0 l/m 5.0 km/h (1 Bft) O-SO 8.0 C 9.8 C
21.04.2004 00:00 9.9 C 88 % 1015.6 hPa 0.0 l/m 1.3 km/h (1 Bft) O-SO 8.1 C 9.8 C
21.04.2004 01:00 9.2 C 90 % 1015.9 hPa 0.0 l/m 1.3 km/h (1 Bft) O-SO 7.7 C 9.1 C
21.04.2004 02:00 9.0 C 93 % 1016.8 hPa 0.0 l/m 1.3 km/h (1 Bft) O-SO 8.0 C 9.0 C
21.04.2004 03:00 8.7 C 94 % 1016.8 hPa 0.0 l/m 0.0 km/h (0 Bft) N 7.7 C 8.7 C
21.04.2004 04:00 7.9 C 96 % 1016.9 hPa 0.0 l/m 1.0 km/h (0 Bft) O-SO 7.3 C 7.9 C
21.04.2004 05:00 7.1 C 98 % 1017.0 hPa 0.0 l/m 1.2 km/h (1 Bft) O-SO 6.9 C 7.1 C
21.04.2004 06:00 6.5 C 100 % 1017.1 hPa 0.0 l/m 0.0 km/h (0 Bft) N 6.4 C 6.5 C
21.04.2004 07:00 6.9 C 100 % 1017.3 hPa 0.0 l/m 0.5 km/h (0 Bft) O-SO 6.9 C 6.9 C
21.04.2004 08:00 8.5 C 95 % 1017.9 hPa 0.0 l/m 0.0 km/h (0 Bft) N 7.7 C 8.5 C
21.04.2004 09:00 10.7 C 80 % 1017.5 hPa 0.0 l/m 0.9 km/h (0 Bft) W-NW 7.3 C 10.7 C
21.04.2004 10:00 13.2 C 64 % 1016.2 hPa 0.0 l/m 2.2 km/h (1 Bft) W-NW 6.4 C 13.2 C
21.04.2004 11:00 15.4 C 55 % 1015.9 hPa 0.0 l/m 2.3 km/h (1 Bft) W-NW 6.4 C 15.4 C
21.04.2004 12:00 17.5 C 47 % 1015.4 hPa 0.0 l/m 4.3 km/h (1 Bft) NW 6.0 C 17.5 C
21.04.2004 13:00 19.5 C 40 % 1014.3 hPa 0.0 l/m 2.5 km/h (1 Bft) NW 5.4 C 19.5 C
21.04.2004 14:00 21.0 C 38 % 1014.1 hPa 0.0 l/m 6.0 km/h (2 Bft) O-SO 6.1 C 21.0 C
21.04.2004 15:00 21.9 C 38 % 1013.4 hPa 0.0 l/m 1.8 km/h (1 Bft) O-SO 6.8 C 21.9 C
21.04.2004 16:00 22.3 C 33 % 1012.9 hPa 0.0 l/m 4.1 km/h (1 Bft) O-SO 5.1 C 22.3 C
21.04.2004 17:00 22.5 C 33 % 1012.9 hPa 0.0 l/m 1.6 km/h (1 Bft) W 5.2 C 22.5 C
21.04.2004 18:00 21.7 C 34 % 1013.0 hPa 0.0 l/m 0.5 km/h (0 Bft) O 5.2 C 21.7 C
21.04.2004 19:00 20.0 C 38 % 1013.2 hPa 0.0 l/m 2.4 km/h (1 Bft) NO 5.3 C 20.0 C
21.04.2004 20:00 16.8 C 47 % 1013.6 hPa 0.0 l/m 1.6 km/h (1 Bft) NO 5.3 C 16.8 C
21.04.2004 21:00 13.3 C 61 % 1014.2 hPa 0.0 l/m 2.4 km/h (1 Bft) O-SO 5.8 C 13.3 C
21.04.2004 22:00 11.1 C 72 % 1015.4 hPa 0.0 l/m 0.0 km/h (0 Bft) N 6.2 C 11.1 C
21.04.2004 23:00 9.5 C 80 % 1015.6 hPa 0.0 l/m 0.6 km/h (0 Bft) O-SO 6.2 C 9.5 C
22.04.2004 00:00 8.5 C 85 % 1015.8 hPa 0.0 l/m 1.9 km/h (1 Bft) O-SO 6.1 C 8.4 C
22.04.2004 01:00 7.9 C 87 % 1015.9 hPa 0.0 l/m 1.6 km/h (1 Bft) O-SO 5.9 C 7.8 C
22.04.2004 02:00 7.0 C 93 % 1016.0 hPa 0.0 l/m 1.7 km/h (1 Bft) O-SO 5.9 C 6.8 C
22.04.2004 03:00 6.3 C 94 % 1016.1 hPa 0.0 l/m 0.9 km/h (0 Bft) O-SO 5.5 C 6.3 C
22.04.2004 04:00 5.7 C 96 % 1016.2 hPa 0.0 l/m 0.2 km/h (0 Bft) O-SO 5.1 C 5.7 C
22.04.2004 05:00 4.9 C 99 % 1016.3 hPa 0.0 l/m 1.0 km/h (0 Bft) O-SO 4.7 C 4.7 C
22.04.2004 06:00 4.6 C 100 % 1016.3 hPa 0.0 l/m 0.4 km/h (0 Bft) O-SO 4.6 C 4.6 C
22.04.2004 07:00 5.3 C 99 % 1016.2 hPa 0.0 l/m 0.3 km/h (0 Bft) O-SO 5.2 C 5.3 C
22.04.2004 08:00 7.8 C 88 % 1015.9 hPa 0.0 l/m 0.3 km/h (0 Bft) O-SO 6.0 C 7.8 C
22.04.2004 09:00 10.9 C 73 % 1015.4 hPa 0.0 l/m 0.5 km/h (0 Bft) O-SO 6.3 C 10.9 C
22.04.2004 10:00 14.3 C 60 % 1015.0 hPa 0.0 l/m 0.6 km/h (0 Bft) SO 6.5 C 14.3 C
22.04.2004 11:00 17.0 C 51 % 1013.7 hPa 0.0 l/m 2.6 km/h (1 Bft) W-NW 6.8 C 17.0 C
22.04.2004 12:00 19.6 C 42 % 1013.3 hPa 0.0 l/m 1.3 km/h (1 Bft) W-NW 6.2 C 19.6 C
22.04.2004 13:00 22.2 C 37 % 1012.5 hPa 0.0 l/m 2.0 km/h (1 Bft) NW 6.7 C 22.2 C
22.04.2004 14:00 24.4 C 29 % 1011.6 hPa 0.0 l/m 8.4 km/h (2 Bft) O-SO 5.2 C 24.4 C
22.04.2004 15:00 24.9 C 25 % 1011.5 hPa 0.0 l/m 2.5 km/h (1 Bft) O-SO 3.6 C 24.9 C
22.04.2004 16:00 25.0 C 25 % 1011.5 hPa 0.0 l/m 2.7 km/h (1 Bft) O-SO 3.7 C 25.0 C
22.04.2004 17:00 25.3 C 28 % 1010.6 hPa 0.0 l/m 5.8 km/h (2 Bft) W 5.4 C 25.3 C
22.04.2004 18:00 24.1 C 31 % 1010.6 hPa 0.0 l/m 1.2 km/h (1 Bft) W 5.7 C 24.1 C
22.04.2004 19:00 21.6 C 42 % 1011.6 hPa 0.0 l/m 2.0 km/h (1 Bft) W-NW 8.2 C 21.6 C
22.04.2004 20:00 19.2 C 48 % 1012.3 hPa 0.0 l/m 1.2 km/h (1 Bft) O-SO 7.8 C 19.2 C
22.04.2004 21:00 17.8 C 55 % 1013.4 hPa 0.0 l/m 0.6 km/h (0 Bft) W-NW 8.5 C 17.8 C
22.04.2004 22:00 17.1 C 57 % 1014.1 hPa 0.0 l/m 0.0 km/h (0 Bft) N 8.6 C 17.1 C
22.04.2004 23:00 16.0 C 61 % 1014.8 hPa 0.0 l/m 0.0 km/h (0 Bft) N 8.4 C 16.0 C
23.04.2004 00:00 14.1 C 70 % 1015.0 hPa 0.0 l/m 0.0 km/h (0 Bft) N 8.8 C 14.1 C
23.04.2004 01:00 13.6 C 74 % 1015.1 hPa 0.0 l/m 0.7 km/h (0 Bft) O 9.0 C 13.6 C
23.04.2004 02:00 13.5 C 75 % 1015.1 hPa 0.0 l/m 4.2 km/h (1 Bft) O-SO 9.2 C 13.5 C
23.04.2004 03:00 13.4 C 81 % 1015.4 hPa 0.0 l/m 0.6 km/h (0 Bft) W-SW 10.2 C 13.4 C
23.04.2004 04:00 12.9 C 84 % 1016.2 hPa 0.0 l/m 2.3 km/h (1 Bft) W 10.3 C 12.9 C
23.04.2004 05:00 12.2 C 85 % 1016.3 hPa 0.0 l/m 0.8 km/h (0 Bft) O 9.8 C 12.2 C
23.04.2004 06:00 12.5 C 89 % 1016.3 hPa 0.0 l/m 0.2 km/h (0 Bft) W 10.7 C 12.5 C
23.04.2004 07:00 12.9 C 83 % 1016.6 hPa 0.0 l/m 0.2 km/h (0 Bft) W-SW 10.1 C 12.9 C
23.04.2004 08:00 14.0 C 78 % 1017.1 hPa 0.0 l/m 1.9 km/h (1 Bft) W-NW 10.2 C 14.0 C
23.04.2004 09:00 15.3 C 73 % 1016.9 hPa 0.0 l/m 2.3 km/h (1 Bft) W 10.5 C 15.3 C
23.04.2004 10:00 17.7 C 61 % 1016.6 hPa 0.0 l/m 3.1 km/h (1 Bft) O-SO 10.1 C 17.7 C
23.04.2004 11:00 18.3 C 60 % 1016.6 hPa 0.0 l/m 2.2 km/h (1 Bft) N-NW 10.4 C 18.3 C
23.04.2004 12:00 19.0 C 57 % 1016.4 hPa 0.0 l/m 1.3 km/h (1 Bft) NW 10.4 C 19.0 C
23.04.2004 13:00 19.4 C 53 % 1016.4 hPa 0.0 l/m 11.6 km/h (2 Bft) NW 9.5 C 19.4 C
23.04.2004 14:00 15.4 C 75 % 1017.3 hPa 6.4 l/m 10.2 km/h (2 Bft) NW 10.6 C 15.4 C
23.04.2004 15:00 18.2 C 64 % 1016.6 hPa 0.0 l/m 13.1 km/h (3 Bft) NW 11.3 C 18.2 C
23.04.2004 16:00 18.9 C 61 % 1016.7 hPa 0.0 l/m 6.0 km/h (2 Bft) NW 11.2 C 18.9 C
23.04.2004 17:00 17.7 C 60 % 1017.1 hPa 0.0 l/m 2.7 km/h (1 Bft) N-NW 9.8 C 17.7 C
23.04.2004 18:00 16.8 C 61 % 1017.8 hPa 0.0 l/m 2.0 km/h (1 Bft) N-NW 9.3 C 16.8 C
23.04.2004 19:00 15.1 C 67 % 1018.7 hPa 0.0 l/m 5.5 km/h (1 Bft) N-NW 8.9 C 15.1 C
23.04.2004 20:00 13.6 C 71 % 1019.8 hPa 0.0 l/m 5.0 km/h (1 Bft) N-NO 8.5 C 13.6 C
23.04.2004 21:00 13.0 C 68 % 1021.0 hPa 0.0 l/m 5.9 km/h (2 Bft) N-NO 7.2 C 13.0 C
23.04.2004 22:00 12.1 C 64 % 1022.2 hPa 0.0 l/m 7.1 km/h (2 Bft) N-NO 5.5 C 12.1 C
23.04.2004 23:00 11.6 C 60 % 1022.6 hPa 0.0 l/m 3.1 km/h (1 Bft) NO 4.2 C 11.6 C
24.04.2004 00:00 11.1 C 62 % 1022.7 hPa 0.0 l/m 2.9 km/h (1 Bft) N-NO 4.1 C 11.1 C
24.04.2004 01:00 10.9 C 63 % 1022.7 hPa 0.0 l/m 1.4 km/h (1 Bft) N 4.1 C 10.9 C
24.04.2004 02:00 10.6 C 64 % 1022.8 hPa 0.0 l/m 0.9 km/h (0 Bft) N 4.1 C 10.6 C
24.04.2004 03:00 10.3 C 66 % 1022.8 hPa 0.0 l/m 1.0 km/h (0 Bft) N-NO 4.2 C 10.3 C
24.04.2004 04:00 10.1 C 67 % 1022.8 hPa 0.0 l/m 1.3 km/h (1 Bft) O-NO 4.3 C 10.1 C
24.04.2004 05:00 9.8 C 69 % 1022.9 hPa 0.0 l/m 0.2 km/h (0 Bft) O-NO 4.4 C 9.8 C
24.04.2004 06:00 9.7 C 68 % 1022.9 hPa 0.0 l/m 0.1 km/h (0 Bft) NO 4.0 C 9.7 C
24.04.2004 07:00 9.7 C 65 % 1022.9 hPa 0.0 l/m 0.3 km/h (0 Bft) N-NO 3.5 C 9.7 C
24.04.2004 08:00 10.4 C 59 % 1023.4 hPa 0.0 l/m 0.7 km/h (0 Bft) N 2.8 C 10.4 C
24.04.2004 09:00 11.1 C 54 % 1023.7 hPa 0.0 l/m 0.7 km/h (0 Bft) N-NO 2.2 C 11.1 C
24.04.2004 10:00 12.6 C 49 % 1023.5 hPa 0.0 l/m 5.3 km/h (1 Bft) O-NO 2.1 C 12.6 C
24.04.2004 11:00 14.2 C 44 % 1023.3 hPa 0.0 l/m 11.4 km/h (2 Bft) O 2.1 C 14.2 C
24.04.2004 12:00 15.7 C 40 % 1022.2 hPa 0.0 l/m 13.2 km/h (3 Bft) O-SO 2.2 C 15.7 C
24.04.2004 13:00 18.0 C 38 % 1021.8 hPa 0.0 l/m 16.1 km/h (3 Bft) O-SO 3.5 C 18.0 C
24.04.2004 14:00 18.2 C 37 % 1021.7 hPa 0.0 l/m 13.2 km/h (3 Bft) O-SO 3.3 C 18.2 C
24.04.2004 15:00 18.2 C 34 % 1021.0 hPa 0.0 l/m 8.1 km/h (2 Bft) O-SO 1.9 C 18.2 C
24.04.2004 16:00 18.4 C 33 % 1020.7 hPa 0.0 l/m 8.0 km/h (2 Bft) O-SO 1.8 C 18.4 C
24.04.2004 17:00 18.0 C 35 % 1020.7 hPa 0.0 l/m 12.0 km/h (2 Bft) O-SO 2.1 C 18.0 C
24.04.2004 18:00 16.7 C 36 % 1020.9 hPa 0.0 l/m 14.5 km/h (3 Bft) O-SO 1.5 C 16.7 C
24.04.2004 19:00 16.5 C 33 % 1021.5 hPa 0.0 l/m 5.7 km/h (1 Bft) N-NO 0.3 C 16.5 C
24.04.2004 20:00 14.7 C 34 % 1022.3 hPa 0.0 l/m 2.8 km/h (1 Bft) NO -1.2 C 14.7 C
24.04.2004 21:00 12.8 C 39 % 1023.5 hPa 0.0 l/m 0.1 km/h (0 Bft) N -0.7 C 12.8 C
24.04.2004 22:00 9.9 C 53 % 1023.9 hPa 0.0 l/m 2.5 km/h (1 Bft) O-SO 0.8 C 9.8 C
24.04.2004 23:00 8.1 C 63 % 1024.2 hPa 0.0 l/m 1.5 km/h (1 Bft) NO 1.4 C 8.0 C
25.04.2004 00:00 7.5 C 64 % 1024.2 hPa 0.0 l/m 2.3 km/h (1 Bft) O-SO 1.2 C 7.3 C
25.04.2004 01:00 6.4 C 74 % 1024.4 hPa 0.0 l/m 1.7 km/h (1 Bft) O-SO 2.1 C 6.3 C
25.04.2004 02:00 6.0 C 74 % 1024.5 hPa 0.0 l/m 0.0 km/h (0 Bft) N 1.6 C 6.0 C
25.04.2004 03:00 6.0 C 75 % 1024.5 hPa 0.0 l/m 0.2 km/h (0 Bft) O 1.8 C 6.0 C
25.04.2004 04:00 4.6 C 82 % 1024.7 hPa 0.0 l/m 0.3 km/h (0 Bft) O 1.8 C 4.5 C
25.04.2004 05:00 3.8 C 88 % 1024.8 hPa 0.0 l/m 0.0 km/h (0 Bft) N 2.0 C 3.8 C
25.04.2004 06:00 3.8 C 91 % 1024.8 hPa 0.0 l/m 0.3 km/h (0 Bft) N 2.5 C 3.7 C
25.04.2004 07:00 5.6 C 78 % 1024.5 hPa 0.0 l/m 0.1 km/h (0 Bft) N 2.1 C 5.6 C
25.04.2004 08:00 7.9 C 66 % 1024.2 hPa 0.0 l/m 1.3 km/h (1 Bft) N-NO 1.9 C 7.8 C
25.04.2004 09:00 10.3 C 59 % 1023.9 hPa 0.0 l/m 6.8 km/h (2 Bft) O-NO 2.6 C 10.1 C
25.04.2004 10:00 11.9 C 52 % 1023.6 hPa 0.0 l/m 6.5 km/h (2 Bft) NO 2.4 C 11.9 C
25.04.2004 11:00 14.6 C 45 % 1023.3 hPa 0.0 l/m 24.2 km/h (4 Bft) O-SO 2.8 C 14.6 C
25.04.2004 12:00 15.3 C 42 % 1023.2 hPa 0.0 l/m 23.7 km/h (4 Bft) O-SO 2.4 C 15.3 C
25.04.2004 13:00 13.8 C 45 % 1023.4 hPa 0.0 l/m 4.5 km/h (1 Bft) NO 1.9 C 13.8 C
25.04.2004 14:00 15.7 C 40 % 1023.1 hPa 0.0 l/m 12.0 km/h (2 Bft) O 2.1 C 15.7 C
25.04.2004 15:00 16.4 C 35 % 1023.0 hPa 0.0 l/m 10.8 km/h (2 Bft) N-NO 0.8 C 16.4 C
25.04.2004 16:00 15.6 C 37 % 1023.1 hPa 0.0 l/m 10.6 km/h (2 Bft) O 1.0 C 15.6 C
25.04.2004 17:00 14.8 C 39 % 1023.2 hPa 0.0 l/m 14.4 km/h (3 Bft) O-SO 1.2 C 14.8 C
25.04.2004 18:00 14.8 C 42 % 1023.2 hPa 0.0 l/m 12.6 km/h (3 Bft) O-SO 1.9 C 14.8 C
25.04.2004 19:00 13.7 C 46 % 1023.4 hPa 0.0 l/m 14.6 km/h (3 Bft) O-SO 2.3 C 13.7 C
25.04.2004 20:00 11.9 C 50 % 1023.6 hPa 0.0 l/m 10.2 km/h (2 Bft) O-SO 1.9 C 11.9 C
25.04.2004 21:00 10.4 C 56 % 1024.8 hPa 0.0 l/m 2.3 km/h (1 Bft) O 2.1 C 10.4 C
25.04.2004 22:00 9.7 C 61 % 1025.0 hPa 0.0 l/m 1.4 km/h (1 Bft) N-NO 2.5 C 9.6 C
25.04.2004 23:00 9.2 C 63 % 1024.1 hPa 0.0 l/m 3.5 km/h (1 Bft) NO 2.4 C 8.9 C
Min-Datum _ 20.04.04 22.04.04 19.04.04 - 19.04.04 - 24.04.04 20.04.04
_ Min-Zeit 06:12 14:45 00:00 - 01:36 - 20:33 06:03
Minimum _ -0.6 C 25 % 998.2 hPa - 0.0 km/h (0 Bft) - -2.5 C -4.0 C
Max-Datum _ 22.04.04 20.04.04 25.04.04 23.04.04 25.04.04 - 23.04.04 22.04.04
_ Max-Zeit 17:09 01:54 22:48 14:09 12:06 - 14:54 17:09
Maximum _ 25.7 C 100 % 1025.0 hPa 6.4 l/m 40.6 km/h
O-SO (6 Bft)
- 13.2 C 25.7 C
Durchschnitt _ 11.7 C 66 % 1014.9 hPa #7.7 l/m 4.0 km/h (1 Bft) O-SO 4.5 C 11.6 C

Durchschnitt Minimum Temp.10.8 C
Durchschnitt Maximum Temp.12.7 C
© Kaiko 2004